Time;durP1;ratioP1;P1;durP2;ratioP2;P2;SDS_P1;SDS_P2;PMS_P1;PMS_P2;Temp;Humidity;BMP_temperature;BMP_pressure;BME280_temperature;BME280_humidity;BME280_pressure;Samples;Min_cycle;Max_cycle;Signal;HPM_P1;HPM_P2
2022/05/20 00:01:46;;;;;;;1.60;1.50;;;;;;;9.94;100.00;61863.34;5097166;28;20508;-71
2022/05/20 00:04:13;;;;;;;4.20;1.63;;;;;;;9.85;100.00;61856.81;5092475;28;20518;-71
2022/05/20 00:06:40;;;;;;;1.83;1.67;;;;;;;9.90;100.00;61861.63;5092688;28;20719;-72
2022/05/20 00:09:08;;;;;;;3.03;1.50;;;;;;;9.84;100.00;61852.66;5092632;28;20499;-72
2022/05/20 00:11:35;;;;;;;8.33;1.53;;;;;;;9.84;100.00;61852.66;5092904;28;20453;-73
2022/05/20 00:14:02;;;;;;;2.17;1.60;;;;;;;9.78;100.00;61846.22;5092625;28;20499;-71
2022/05/20 00:16:30;;;;;;;3.10;1.30;;;;;;;9.72;100.00;61840.34;5092614;28;20217;-72
2022/05/20 00:18:57;;;;;;;3.33;1.90;;;;;;;9.61;100.00;61828.56;5092236;28;20454;-72
2022/05/20 00:21:24;;;;;;;2.37;1.60;;;;;;;9.64;100.00;61831.75;5092337;28;20277;-72
2022/05/20 00:23:50;;;;;;;2.50;1.50;;;;;;;9.56;100.00;61823.22;5092370;28;20434;-71
2022/05/20 00:26:19;;;;;;;2.37;1.77;;;;;;;9.50;100.00;61816.25;5092721;28;20450;-71
2022/05/20 00:28:48;;;;;;;2.53;1.50;;;;;;;9.44;100.00;61814.94;5092250;28;20685;-71
2022/05/20 00:31:16;;;;;;;6.00;2.23;;;;;;;9.42;100.00;61807.72;5074113;28;20441;-72
2022/05/20 00:33:43;;;;;;;2.40;1.73;;;;;;;9.49;100.00;61812.66;5092420;28;20466;-72
2022/05/20 00:36:11;;;;;;;3.80;1.70;;;;;;;9.51;100.00;61817.88;5092058;28;20862;-71
2022/05/20 00:38:37;;;;;;;4.50;2.47;;;;;;;9.51;100.00;61819.88;5092089;28;20449;-72
2022/05/20 00:41:06;;;;;;;4.57;2.40;;;;;;;9.54;100.00;61820.53;5091806;28;21025;-72
2022/05/20 00:43:39;;;;;;;3.30;2.17;;;;;;;9.57;100.00;61828.84;5092058;28;20503;-72
2022/05/20 00:46:10;;;;;;;3.30;2.23;;;;;;;9.45;100.00;61811.44;5091975;28;21144;-72
2022/05/20 00:48:38;;;;;;;7.10;2.73;;;;;;;9.47;100.00;61813.59;5091942;28;20445;-72
2022/05/20 00:51:08;;;;;;;5.80;3.70;;;;;;;9.50;100.00;61821.88;5092044;28;20313;-71
2022/05/20 00:53:42;;;;;;;7.00;4.00;;;;;;;9.53;100.00;61822.00;5092120;28;20199;-72
2022/05/20 00:56:13;;;;;;;10.63;4.77;;;;;;;9.50;100.00;61816.25;5091718;28;20499;-72
2022/05/20 00:58:42;;;;;;;12.63;7.57;;;;;;;9.38;100.00;61803.44;5091989;28;20238;-72
2022/05/20 01:01:09;;;;;;;7.83;5.57;;;;;;;9.33;100.00;61799.16;5091926;28;20231;-74
2022/05/20 01:03:37;;;;;;;8.23;5.27;;;;;;;9.35;100.00;61798.19;5091825;28;20495;-72
2022/05/20 01:06:04;;;;;;;11.30;4.90;;;;;;;9.32;100.00;61795.53;5090361;28;20296;-72
2022/05/20 01:08:33;;;;;;;12.40;7.73;;;;;;;8.97;100.00;61758.09;5091432;28;20438;-72
2022/05/20 01:11:00;;;;;;;7.37;5.10;;;;;;;8.89;100.00;61754.63;5091590;28;20449;-72
2022/05/20 01:13:29;;;;;;;12.00;6.77;;;;;;;8.84;100.00;61741.63;5091825;28;20858;-72
2022/05/20 01:16:02;;;;;;;21.53;10.37;;;;;;;8.90;100.00;61753.13;5091833;28;20499;-73
2022/05/20 01:18:30;;;;;;;10.17;6.70;;;;;;;9.13;100.00;61782.84;5091865;28;20461;-73
2022/05/20 01:20:57;;;;;;;9.97;5.93;;;;;;;9.09;100.00;61770.94;5091661;28;20485;-73
2022/05/20 01:23:28;;;;;;;29.50;20.00;;;;;;;9.02;100.00;61768.50;5091501;28;20503;-72
2022/05/20 01:25:57;;;;;;;13.80;9.70;;;;;;;9.01;100.00;61761.84;5091711;28;20499;-74
2022/05/20 01:28:27;;;;;;;8.17;4.03;;;;;;;8.99;100.00;61762.78;5091676;28;20511;-71
2022/05/20 01:30:57;;;;;;;4.23;3.03;;;;;;;8.86;100.00;61748.84;5091417;28;20960;-73
2022/05/20 01:33:27;;;;;;;8.43;3.30;;;;;;;8.84;100.00;61751.81;5091493;28;20523;-71
2022/05/20 01:35:54;;;;;;;5.00;2.60;;;;;;;8.92;100.00;61750.19;5091316;28;20449;-72
2022/05/20 01:38:21;;;;;;;5.93;4.40;;;;;;;8.95;100.00;61760.50;5091510;28;20450;-72
2022/05/20 01:40:55;;;;;;;12.23;6.10;;;;;;;8.83;100.00;61745.13;5091266;28;20489;-72
2022/05/20 01:43:51;;;;;;;6.47;4.23;;;;;;;8.84;100.00;61748.72;5091722;28;20815;-76
2022/05/20 01:46:33;;;;;;;11.90;6.50;;;;;;;8.98;100.00;61761.16;5091371;28;20666;-72
2022/05/20 01:49:18;;;;;;;8.97;3.60;;;;;;;8.80;100.00;61742.44;5091612;28;20449;-72
2022/05/20 01:51:50;;;;;;;2.87;2.27;;;;;;;9.12;100.00;61776.66;5091620;28;20195;-72
2022/05/20 01:54:24;;;;;;;4.47;2.30;;;;;;;9.05;100.00;61771.72;5091366;28;20495;-72
2022/05/20 01:56:57;;;;;;;6.50;3.13;;;;;;;9.07;100.00;61770.78;5091386;28;20453;-72
2022/05/20 01:59:29;;;;;;;6.70;2.53;;;;;;;9.07;100.00;61770.78;5090831;28;20445;-71
2022/05/20 02:02:02;;;;;;;10.60;2.50;;;;;;;9.18;100.00;61783.09;5091416;28;20569;-72
2022/05/20 02:04:35;;;;;;;5.00;2.53;;;;;;;9.08;100.00;61772.38;5091423;28;20460;-73
2022/05/20 02:07:08;;;;;;;3.27;1.90;;;;;;;8.81;100.00;61743.53;5093422;28;20441;-72
2022/05/20 02:09:43;;;;;;;2.10;1.80;;;;;;;8.93;100.00;61755.81;5096909;28;20430;-72
2022/05/20 02:12:14;;;;;;;2.13;1.87;;;;;;;8.87;100.00;61752.47;5095133;28;20445;-71
2022/05/20 02:14:48;;;;;;;4.40;1.90;;;;;;;8.93;100.00;61758.91;5095148;28;20506;-72
2022/05/20 02:17:21;;;;;;;2.50;2.00;;;;;;;8.94;100.00;61759.97;5095111;28;20445;-72
2022/05/20 02:19:53;;;;;;;2.73;1.80;;;;;;;8.95;100.00;61758.50;5095045;28;20449;-72
2022/05/20 02:22:27;;;;;;;4.87;2.70;;;;;;;9.02;100.00;61765.97;5095384;28;20889;-73
2022/05/20 02:24:56;;;;;;;7.17;2.00;;;;;;;9.09;100.00;61778.00;5095044;28;20494;-73
2022/05/20 02:27:32;;;;;;;3.07;1.80;;;;;;;9.19;100.00;61786.16;5094868;28;20960;-71
2022/05/20 02:30:04;;;;;;;7.23;2.40;;;;;;;9.15;100.00;61781.88;5094706;28;20441;-71
2022/05/20 02:32:34;;;;;;;4.07;2.67;;;;;;;9.12;100.00;61776.66;5094667;28;20215;-72
2022/05/20 02:35:01;;;;;;;4.60;2.17;;;;;;;8.89;100.00;61749.00;5094871;28;20438;-72
2022/05/20 02:37:31;;;;;;;5.90;2.30;;;;;;;9.02;100.00;61765.97;5094751;28;20936;-72
2022/05/20 02:39:58;;;;;;;9.83;2.20;;;;;;;8.53;100.00;61716.13;5094752;28;20512;-72
2022/05/20 02:42:28;;;;;;;9.43;2.60;;;;;;;8.77;100.00;61741.78;5094466;28;20481;-72
2022/05/20 02:44:55;;;;;;;14.77;3.43;;;;;;;8.89;100.00;61756.63;5094708;28;20192;-72
2022/05/20 02:47:23;;;;;;;16.80;4.47;;;;;;;7.89;100.00;61650.25;5094736;28;20445;-71
2022/05/20 02:49:49;;;;;;;13.90;3.10;;;;;;;8.78;100.00;61742.84;5094390;28;20492;-72
2022/05/20 02:52:16;;;;;;;7.10;3.50;;;;;;;8.72;100.00;61728.28;5094249;28;20514;-72
2022/05/20 02:54:50;;;;;;;4.00;3.10;;;;;;;8.61;100.00;61721.59;5094397;28;21026;-73
2022/05/20 02:57:17;;;;;;;19.67;4.30;;;;;;;8.56;100.00;61716.78;5094382;28;20449;-71
2022/05/20 03:05:17;;;;;;;15.33;3.20;;;;;;;8.48;100.00;61713.31;5094096;28;20820;-71
2022/05/20 03:07:44;;;;;;;16.13;4.30;;;;;;;8.34;100.00;61693.81;5094017;28;20832;-72
2022/05/20 03:10:11;;;;;;;10.03;3.30;;;;;;;8.49;100.00;61709.81;5093919;28;20959;-72
2022/05/20 03:12:38;;;;;;;8.03;3.60;;;;;;;8.25;100.00;61683.66;5093946;28;20864;-71
2022/05/20 03:15:10;;;;;;;9.77;3.50;;;;;;;8.41;100.00;61703.28;5093731;28;20990;-72
2022/05/20 03:17:38;;;;;;;5.80;3.23;;;;;;;8.45;100.00;61705.56;5093701;28;20877;-72
2022/05/20 03:20:08;;;;;;;10.13;3.60;;;;;;;8.41;100.00;61701.28;5093593;28;20476;-72
2022/05/20 03:22:36;;;;;;;6.77;3.30;;;;;;;7.89;100.00;61647.69;5093648;28;20861;-71
2022/05/20 03:25:05;;;;;;;11.57;3.37;;;;;;;8.63;100.00;61726.28;5093745;28;20495;-72
2022/05/20 03:27:32;;;;;;;15.70;3.70;;;;;;;8.60;100.00;61718.53;5093805;28;20842;-71
2022/05/20 03:30:00;;;;;;;17.53;3.97;;;;;;;8.56;100.00;61716.78;5093600;28;20494;-74
2022/05/20 03:32:28;;;;;;;12.87;3.70;;;;;;;8.57;100.00;61715.31;5093542;28;20462;-72
2022/05/20 03:34:56;;;;;;;13.20;4.30;;;;;;;8.55;100.00;61715.19;5093678;28;20444;-74
2022/05/20 03:37:24;;;;;;;17.67;4.50;;;;;;;8.37;100.00;61696.47;5093500;28;20506;-71
2022/05/20 03:39:52;;;;;;;15.00;3.83;;;;;;;8.55;100.00;61718.25;5093037;28;21015;-72
2022/05/20 03:42:19;;;;;;;13.20;4.43;;;;;;;8.56;100.00;61716.25;5093043;28;20534;-71
2022/05/20 03:44:45;;;;;;;6.60;3.57;;;;;;;8.86;100.00;61748.84;5093167;28;20914;-72
2022/05/20 03:47:12;;;;;;;18.73;3.57;;;;;;;9.00;100.00;61760.75;5093031;28;20199;-72
2022/05/20 03:49:42;;;;;;;15.23;4.33;;;;;;;9.07;100.00;61773.88;5093186;28;20487;-74
2022/05/20 03:52:09;;;;;;;13.93;4.77;;;;;;;9.09;100.00;61773.47;5093143;28;20510;-72
2022/05/20 03:54:36;;;;;;;16.10;4.90;;;;;;;9.13;100.00;61780.28;5092995;28;20956;-72
2022/05/20 03:57:05;;;;;;;12.03;4.87;;;;;;;9.24;100.00;61784.41;5093252;28;20269;-73
2022/05/20 03:59:35;;;;;;;10.00;4.80;;;;;;;9.38;100.00;61804.47;5092873;28;20272;-73
2022/05/20 04:02:02;;;;;;;7.40;4.90;;;;;;;9.43;100.00;61808.75;5092700;28;20485;-72
2022/05/20 04:04:32;;;;;;;18.60;6.23;;;;;;;9.55;100.00;61819.06;5092825;28;20209;-71
2022/05/20 04:07:01;;;;;;;17.37;5.83;;;;;;;9.57;100.00;61826.28;5092894;28;20202;-73
2022/05/20 04:09:28;;;;;;;15.53;5.60;;;;;;;9.43;100.00;61808.75;5092792;28;20241;-71
2022/05/20 04:11:58;;;;;;;17.37;5.00;;;;;;;9.75;100.00;61841.00;5094980;28;20283;-72
2022/05/20 04:14:27;;;;;;;11.37;4.47;;;;;;;9.92;100.00;61866.81;5094379;28;20582;-72
2022/05/20 04:16:57;;;;;;;25.97;5.33;;;;;;;9.69;100.00;61834.59;5092658;28;20200;-72
2022/05/20 04:19:24;;;;;;;12.60;4.47;;;;;;;9.84;100.00;61857.75;5092850;28;20286;-73
2022/05/20 04:21:53;;;;;;;12.70;3.60;;;;;;;9.97;100.00;61862.00;5092725;28;20227;-73
2022/05/20 04:24:21;;;;;;;8.73;3.27;;;;;;;10.14;100.00;61885.31;5092705;28;20310;-72
2022/05/20 04:26:48;;;;;;;11.90;3.50;;;;;;;10.06;100.00;61876.72;5092265;28;20203;-72
2022/05/20 04:29:16;;;;;;;8.27;3.33;;;;;;;10.11;100.00;61881.56;5092266;28;20204;-72
2022/05/20 04:31:47;;;;;;;10.93;3.90;;;;;;;10.15;100.00;61885.84;5091805;28;20632;-71
2022/05/20 04:34:15;;;;;;;5.53;3.30;;;;;;;9.62;100.00;61836.75;5092426;28;20195;-75
2022/05/20 04:36:42;;;;;;;14.40;3.83;;;;;;;10.41;100.00;61913.69;5092682;28;20441;-72
2022/05/20 04:39:09;;;;;;;10.50;4.20;;;;;;;10.50;100.00;61920.25;5092095;28;20868;-72
2022/05/20 04:47:08;;;;;;;14.20;4.03;;;;;;;11.04;100.00;61980.66;5091440;28;20556;-73
2022/05/20 04:49:39;;;;;;;14.73;4.10;;;;;;;10.73;100.00;61945.44;5091250;28;20575;-73
2022/05/20 04:52:08;;;;;;;15.43;4.00;;;;;;;11.36;100.00;62012.44;5091436;28;20227;-72
2022/05/20 04:54:53;;;;;;;9.67;4.20;;;;;;;11.02;100.00;61979.06;5091588;28;20201;-72
2022/05/20 04:57:29;;;;;;;26.90;4.53;;;;;;;11.59;100.00;62039.09;5090866;28;20199;-74
2022/05/20 05:00:08;;;;;;;12.70;4.60;;;;;;;11.69;100.00;62049.84;5090953;28;20237;-72
2022/05/20 05:02:37;;;;;;;9.87;4.20;;;;;;;11.73;100.00;62057.22;5090806;28;20667;-72
2022/05/20 05:05:05;;;;;;;11.90;4.00;;;;;;;11.93;100.00;62075.06;5090904;28;20226;-72
2022/05/20 05:07:31;;;;;;;10.43;4.77;;;;;;;12.16;100.00;62100.25;5091405;28;20199;-72
2022/05/20 05:10:00;;;;;;;14.10;4.23;;;;;;;12.39;100.00;62124.41;5091612;28;20203;-71
2022/05/20 05:12:32;;;;;;;20.80;4.40;;;;;;;12.48;100.00;62134.06;5090938;28;20257;-72
2022/05/20 05:14:59;;;;;;;8.97;4.10;;;;;;;12.81;100.00;62171.50;5090835;28;20241;-73
2022/05/20 05:20:14;;;;;;;10.73;4.13;;;;;;;13.02;100.00;62194.06;5090935;28;20199;-73
2022/05/20 05:22:41;;;;;;;15.03;6.63;;;;;;;12.20;100.00;62107.09;5090654;28;20249;-73
2022/05/20 05:25:09;;;;;;;20.50;5.00;;;;;;;13.29;100.00;62217.97;5090675;28;20203;-72
2022/05/20 05:27:38;;;;;;;18.13;5.50;;;;;;;13.09;100.00;62199.03;5091076;28;20279;-72
2022/05/20 05:30:06;;;;;;;11.17;4.83;;;;;;;13.85;100.00;62282.69;5090690;28;20196;-72
2022/05/20 05:32:34;;;;;;;19.23;5.43;;;;;;;13.87;100.00;62282.84;5090611;28;20258;-73
2022/05/20 05:35:01;;;;;;;14.70;4.97;;;;;;;13.96;100.00;62294.53;5090844;28;20206;-73
2022/05/20 05:37:27;;;;;;;20.30;5.60;;;;;;;13.89;100.00;62287.53;5090633;28;20203;-73
2022/05/20 05:39:54;;;;;;;14.37;5.20;;;;;;;14.17;100.00;62315.09;5049968;28;1156009;-72
2022/05/20 05:42:22;;;;;;;25.30;7.20;;;;;;;14.25;100.00;62321.13;5092136;28;20277;-73
2022/05/20 05:44:52;;;;;;;13.30;5.70;;;;;;;14.41;100.00;62342.41;5095546;28;20205;-73
2022/05/20 05:47:19;;;;;;;19.90;6.00;;;;;;;14.46;100.00;62345.22;5095474;28;20191;-74
2022/05/20 05:49:46;;;;;;;25.33;6.40;;;;;;;14.73;100.00;62374.25;5095309;28;20195;-72
2022/05/20 05:52:13;;;;;;;16.97;5.03;;;;;;;14.80;100.00;62386.91;5095202;28;20199;-71
2022/05/20 05:54:40;;;;;;;22.07;5.13;;;;;;;15.05;100.00;62411.25;5095505;28;20195;-71
2022/05/20 05:57:07;;;;;;;14.83;4.27;;;;;;;14.82;100.00;62386.50;5095321;28;20195;-74
2022/05/20 05:59:35;;;;;;;17.90;4.30;;;;;;;15.16;100.00;62425.66;5095431;28;20499;-73
2022/05/20 06:02:05;;;;;;;13.10;4.60;;;;;;;15.20;100.00;62427.94;5095137;28;20223;-72
2022/05/20 06:04:33;;;;;;;9.83;4.17;;;;;;;15.24;100.00;62429.13;5095319;28;20192;-73
2022/05/20 06:07:00;;;;;;;7.87;3.90;;;;;;;15.60;100.00;62464.78;5095062;28;20195;-72
2022/05/20 06:09:28;;;;;;;12.80;4.13;;;;;;;15.54;100.00;62461.44;5095005;28;20659;-73
2022/05/20 06:11:56;;;;;;;13.53;4.67;;;;;;;15.56;100.00;62465.59;5095268;28;20248;-71
2022/05/20 06:14:25;;;;;;;9.67;4.17;;;;;;;15.59;100.00;62469.41;5095250;28;20199;-72
2022/05/20 06:16:52;;;;;;;9.33;4.07;;;;;;;15.71;100.00;62484.88;5096325;28;20192;-73
2022/05/20 06:19:20;;;;;;;7.50;3.70;;;;;;;15.88;100.00;62498.03;5095301;28;20211;-72
2022/05/20 06:21:48;;;;;;;9.97;3.90;;;;;;;15.86;100.00;62495.88;5094660;28;20252;-73
2022/05/20 06:24:14;;;;;;;5.87;4.20;;;;;;;16.03;100.00;62513.66;5094754;28;20196;-73
2022/05/20 06:26:41;;;;;;;8.83;4.00;;;;;;;16.33;100.00;62545.44;5094710;28;20252;-74
2022/05/20 06:29:09;;;;;;;10.70;4.50;;;;;;;16.92;100.00;62612.13;5094345;28;20645;-73
2022/05/20 06:31:35;;;;;;;11.80;4.80;;;;;;;15.79;100.00;62488.34;5094657;28;20203;-72
2022/05/20 06:34:02;;;;;;;35.27;7.63;;;;;;;17.16;100.00;62640.06;5094356;28;20204;-72
2022/05/20 06:42:10;;;;;;;9.70;4.70;;;;;;;17.18;100.00;62637.06;5094014;28;20204;-73
2022/05/20 06:44:37;;;;;;;9.57;4.30;;;;;;;16.68;100.00;62583.19;5094379;28;20628;-73
2022/05/20 06:47:05;;;;;;;24.23;5.80;;;;;;;16.96;100.00;62610.78;5094321;28;20689;-73
2022/05/20 06:49:33;;;;;;;29.97;13.83;;;;;;;17.08;100.00;62623.72;5094178;28;20203;-72
2022/05/20 06:52:01;;;;;;;18.00;5.33;;;;;;;17.35;100.00;62652.81;5094097;28;20196;-72
2022/05/20 06:54:28;;;;;;;15.80;4.97;;;;;;;17.50;100.00;62671.59;5093584;28;20196;-73
2022/05/20 06:56:55;;;;;;;14.47;4.67;;;;;;;17.67;100.00;62692.50;5094198;28;20229;-73
2022/05/20 06:59:23;;;;;;;19.27;5.47;;;;;;;17.78;100.00;62703.28;5094289;28;20200;-72
2022/05/20 07:01:52;;;;;;;11.27;5.00;;;;;;;18.25;100.00;62748.84;5094120;28;20249;-72
2022/05/20 07:04:19;;;;;;;16.67;4.67;;;;;;;18.22;100.00;62743.03;5093997;28;20231;-72
2022/05/20 07:06:46;;;;;;;17.00;4.90;;;;;;;18.64;100.00;62793.53;5093347;28;20203;-74
2022/05/20 07:09:15;;;;;;;14.33;5.00;;;;;;;18.61;100.00;62790.31;5093647;28;20192;-73
2022/05/20 07:11:42;;;;;;;8.03;4.93;;;;;;;18.31;100.00;62755.34;5094320;28;20583;-72
2022/05/20 07:14:09;;;;;;;15.67;5.13;;;;;;;18.35;100.00;62759.66;5093884;28;20206;-72
2022/05/20 07:16:36;;;;;;;12.90;5.00;;;;;;;18.45;100.00;62773.03;5093629;28;20641;-74
2022/05/20 07:19:02;;;;;;;16.07;5.10;;;;;;;18.92;100.00;62823.25;5093790;28;20200;-73
2022/05/20 07:21:29;;;;;;;21.90;5.13;;;;;;;19.03;100.00;62830.50;5093673;28;20204;-73
2022/05/20 07:23:56;;;;;;;15.37;4.87;;;;;;;18.86;100.00;62821.91;5093390;28;20223;-73
2022/05/20 07:26:24;;;;;;;17.03;5.20;;;;;;;19.35;100.00;62870.25;5093475;28;20272;-73
2022/05/20 07:28:51;;;;;;;27.33;5.13;;;;;;;19.96;100.00;62935.09;5093396;28;20270;-73
2022/05/20 07:31:18;;;;;;;16.43;5.67;;;;;;;20.16;100.00;62954.66;5093417;28;20339;-72
2022/05/20 07:33:45;;;;;;;15.93;4.93;;;;;;;20.29;100.00;62970.78;5093491;28;20310;-73
2022/05/20 07:36:12;;;;;;;16.07;5.27;;;;;;;20.17;100.00;62955.19;5093372;28;20667;-73
2022/05/20 07:38:39;;;;;;;13.17;5.20;;;;;;;19.89;100.00;62925.47;5093362;28;20231;-75
2022/05/20 07:41:06;;;;;;;9.07;4.37;;;;;;;19.64;100.00;62898.44;5093159;28;20231;-72
2022/05/20 07:43:34;;;;;;;14.47;4.57;;;;;;;19.63;100.00;62896.84;5093074;28;20227;-72
2022/05/20 07:46:01;;;;;;;7.10;4.20;;;;;;;19.50;100.00;62890.56;5093279;28;20276;-72
2022/05/20 07:48:28;;;;;;;12.07;4.27;;;;;;;19.77;100.00;62917.13;5093112;28;20646;-72
2022/05/20 07:50:58;;;;;;;10.33;4.33;;;;;;;19.91;100.00;62924.50;5092812;28;20685;-73
2022/05/20 07:53:33;;;;;;;9.30;4.63;;;;;;;19.49;100.00;62884.28;5072942;28;20281;-73
2022/05/20 07:56:03;;;;;;;13.47;4.77;;;;;;;20.46;100.00;62989.19;5072898;28;20199;-74
2022/05/20 07:58:33;;;;;;;14.87;4.50;;;;;;;20.74;100.00;63019.47;5072690;28;20197;-73
2022/05/20 08:01:03;;;;;;;11.23;5.03;;;;;;;21.18;100.00;63066.00;5072651;28;20719;-72
2022/05/20 08:06:19;;;;;;;11.97;4.63;;;;;;;21.41;100.00;63088.31;5071755;28;20694;-72
2022/05/20 08:08:47;;;;;;;12.30;5.20;;;;;;;21.36;100.00;63082.88;5072312;28;20199;-72
2022/05/20 08:11:15;;;;;;;10.67;4.13;;;;;;;20.82;100.00;63024.97;5071995;28;20253;-73
2022/05/20 08:13:42;;;;;;;9.80;4.30;;;;;;;20.88;100.00;63037.19;5072250;28;20207;-74
2022/05/20 08:16:10;;;;;;;16.07;5.50;;;;;;;21.21;100.00;63064.59;5072499;28;20197;-72
2022/05/20 08:18:37;;;;;;;8.77;4.77;;;;;;;21.34;100.00;63080.72;5072444;28;20200;-72
2022/05/20 08:21:04;;;;;;;11.93;4.83;;;;;;;21.84;100.00;63132.28;5072708;28;20211;-73
2022/05/20 08:23:31;;;;;;;10.60;5.40;;;;;;;21.89;100.00;63137.69;5072133;28;20220;-74
2022/05/20 08:25:57;;;;;;;12.23;4.63;;;;;;;21.85;100.00;63139.09;5071940;28;20246;-72
2022/05/20 08:28:24;;;;;;;11.20;5.37;;;;;;;22.61;100.00;63220.91;5071816;28;20285;-74
2022/05/20 08:30:52;;;;;;;14.67;5.17;;;;;;;22.62;100.00;63218.84;5072318;28;20204;-73
2022/05/20 08:33:20;;;;;;;11.87;5.13;;;;;;;22.90;100.00;63251.25;5071972;28;20220;-72
2022/05/20 08:35:47;;;;;;;9.80;5.07;;;;;;;23.20;100.00;63279.09;5072036;28;20208;-73
2022/05/20 08:38:14;;;;;;;9.20;4.50;;;;;;;23.13;100.00;63270.97;5071673;28;20633;-73
2022/05/20 08:40:44;;;;;;;9.90;5.03;;;;;;;23.45;100.00;63308.28;5071872;28;20289;-73
2022/05/20 08:43:12;;;;;;;13.67;5.30;;;;;;;23.13;100.00;63276.72;5071485;28;20619;-72
2022/05/20 08:45:40;;;;;;;12.17;5.03;;;;;;;23.11;100.00;63274.00;5072003;28;20196;-71
2022/05/20 08:48:09;;;;;;;11.67;4.77;;;;;;;23.30;100.00;63289.41;5071779;28;20199;-73
2022/05/20 08:50:41;;;;;;;8.67;4.97;;;;;;;22.89;100.00;63250.16;5071733;28;20204;-73
2022/05/20 08:53:14;;;;;;;11.33;4.47;;;;;;;23.67;100.00;63334.75;5089811;28;20288;-73
2022/05/20 08:55:42;;;;;;;14.67;4.63;;;;;;;23.53;100.00;63316.97;5091801;28;20199;-72
2022/05/20 08:58:13;;;;;;;9.10;4.03;;;;;;;23.39;100.00;63304.94;5091475;28;20256;-73
2022/05/20 09:00:39;;;;;;;13.27;4.07;;;;;;;23.67;100.00;63334.19;5091949;28;20279;-76
2022/05/20 09:03:08;;;;;;;14.17;4.23;;;;;;;24.17;86.03;63389.00;5091606;28;20219;-73
2022/05/20 09:05:38;;;;;;;12.13;4.40;;;;;;;24.15;83.98;63386.84;5091354;28;20647;-72
2022/05/20 09:08:20;;;;;;;7.57;3.87;;;;;;;24.50;77.17;63424.28;5091304;28;20204;-74
2022/05/20 09:10:53;;;;;;;12.70;3.77;;;;;;;23.91;77.73;63360.78;5091479;28;20210;-73
2022/05/20 09:15:43;;;;;;;10.77;3.70;;;;;;;24.16;76.27;63387.94;5091161;28;20591;-73
2022/05/20 09:16:14;;;;;;;5.60;3.17;;;;;;;23.70;64.09;63338.00;5091228;28;20293;-73
2022/05/20 09:18:43;;;;;;;11.33;3.70;;;;;;;23.67;63.56;63329.53;5091916;28;20272;-73
2022/05/20 09:21:24;;;;;;;12.93;3.80;;;;;;;23.56;72.37;63322.28;5091569;28;20199;-74
2022/05/20 09:23:55;;;;;;;8.97;3.40;;;;;;;24.19;60.62;63385.97;5091484;28;20292;-74
2022/05/20 09:26:24;;;;;;;13.40;3.93;;;;;;;24.68;60.32;63443.28;5091469;28;20288;-74
2022/05/20 09:28:54;;;;;;;10.30;3.73;;;;;;;24.54;59.32;63422.84;5090842;28;20204;-73
2022/05/20 09:31:26;;;;;;;7.17;3.47;;;;;;;24.63;58.81;63437.84;5091011;28;20620;-74
2022/05/20 09:34:10;;;;;;;7.47;3.10;;;;;;;24.79;55.59;63460.44;5093471;28;20253;-72
2022/05/20 09:36:47;;;;;;;8.40;2.80;;;;;;;24.25;56.19;63392.47;5091581;28;20204;-73
2022/05/20 09:39:18;;;;;;;11.23;3.30;;;;;;;24.45;57.68;63413.09;5090966;28;20203;-73
2022/05/20 09:41:52;;;;;;;7.80;2.93;;;;;;;24.44;52.86;63417.22;5091601;28;20261;-73
2022/05/20 09:44:23;;;;;;;7.80;3.03;;;;;;;24.59;54.75;63428.28;5091256;28;20228;-74
2022/05/20 09:46:53;;;;;;;4.97;2.60;;;;;;;25.14;54.12;63493.78;5091480;28;20199;-74
2022/05/20 09:49:37;;;;;;;7.43;2.90;;;;;;;25.43;51.27;63522.16;5091204;28;20278;-72
2022/05/20 09:52:15;;;;;;;7.37;3.10;;;;;;;25.94;48.76;63579.63;5090899;28;20639;-75
2022/05/20 09:54:58;;;;;;;4.33;2.30;;;;;;;25.86;42.15;63566.25;5091413;28;20207;-73
2022/05/20 09:57:31;;;;;;;4.90;2.03;;;;;;;26.12;42.72;63598.66;5091473;28;20306;-73
2022/05/20 10:00:05;;;;;;;5.33;1.83;;;;;;;26.20;38.47;63602.66;5091011;28;20217;-74
2022/05/20 10:02:36;;;;;;;10.67;2.00;;;;;;;25.96;39.46;63576.56;5091346;28;20195;-74
2022/05/20 10:05:14;;;;;;;9.77;2.47;;;;;;;26.14;39.13;63596.16;5091040;28;20706;-73
2022/05/20 10:08:09;;;;;;;8.83;2.47;;;;;;;25.93;38.86;63578.53;5091212;28;20252;-74
2022/05/20 10:11:01;;;;;;;4.07;2.30;;;;;;;26.14;38.96;63601.38;5089050;28;20566;-73
2022/05/20 10:13:53;;;;;;;4.40;2.17;;;;;;;25.77;36.88;63561.69;5091356;28;20332;-73
2022/05/20 10:16:32;;;;;;;4.73;1.93;;;;;;;25.79;34.99;63560.72;5091227;28;20254;-73
2022/05/20 10:19:08;;;;;;;3.20;1.50;;;;;;;25.62;30.25;63545.38;5091158;28;20203;-73
2022/05/20 10:21:49;;;;;;;5.90;2.10;;;;;;;26.64;33.06;63649.97;5091378;28;20593;-72
2022/05/20 10:24:33;;;;;;;6.77;1.60;;;;;;;26.75;30.03;63667.72;5091483;28;20753;-72
2022/05/20 10:27:08;;;;;;;5.50;2.23;;;;;;;27.16;32.14;63706.53;5091032;28;20240;-74
2022/05/20 10:32:37;;;;;;;4.50;2.20;;;;;;;26.42;32.90;63626.59;5095024;28;20251;-75
2022/05/20 10:35:09;;;;;;;7.00;2.03;;;;;;;25.92;32.48;63575.38;5094774;28;20658;-72
2022/05/20 10:38:08;;;;;;;3.90;2.00;;;;;;;26.16;33.14;63603.00;5094767;28;20203;-73
2022/05/20 10:40:51;;;;;;;16.47;2.93;;;;;;;26.64;34.37;63655.19;5087764;28;20288;-73
2022/05/20 10:48:34;;;;;;;7.13;2.70;;;;;;;26.54;32.43;63639.09;5094280;28;20658;-72
2022/05/20 10:49:18;;;;;;;3.23;1.87;;;;;;;26.24;30.44;63611.72;5094419;28;20203;-73
2022/05/20 10:52:05;;;;;;;4.90;1.83;;;;;;;26.51;29.09;63638.44;5094400;28;20201;-74
2022/05/20 10:55:16;;;;;;;8.47;2.73;;;;;;;27.54;30.74;63753.13;5094236;28;20606;-73
2022/05/20 10:58:24;;;;;;;31.93;2.80;;;;;;;28.08;28.72;63810.84;5085860;28;20272;-72
2022/05/20 11:01:02;;;;;;;2.20;1.57;;;;;;;27.97;25.19;63799.41;5093774;28;20276;-73
2022/05/20 11:04:20;;;;;;;3.40;1.40;;;;;;;27.45;25.56;63743.34;5094364;28;20195;-73
2022/05/20 11:07:10;;;;;;;3.60;1.57;;;;;;;27.70;24.17;63769.44;5094104;28;20197;-73
2022/05/20 11:09:51;;;;;;;4.47;1.20;;;;;;;27.96;25.16;63798.31;5094361;28;20228;-74
2022/05/20 11:12:26;;;;;;;3.20;1.37;;;;;;;27.92;24.75;63788.16;5093819;28;20639;-73
2022/05/20 11:15:23;;;;;;;4.07;1.43;;;;;;;28.62;25.02;63864.41;5093864;28;20203;-74
2022/05/20 11:18:20;;;;;;;4.33;1.37;;;;;;;28.81;22.89;63887.75;5093702;28;20200;-73
2022/05/20 11:21:15;;;;;;;2.37;1.37;;;;;;;28.63;24.86;63870.75;5092782;28;20203;-72
2022/05/20 11:24:06;;;;;;;6.73;1.70;;;;;;;28.44;26.06;63855.28;5093753;28;20298;-75
2022/05/20 11:26:45;;;;;;;4.70;1.70;;;;;;;27.90;27.43;63791.22;5076583;28;20671;-72
2022/05/20 11:29:35;;;;;;;4.83;1.93;;;;;;;27.89;27.21;63792.75;5093485;28;20199;-72
2022/05/20 11:32:05;;;;;;;4.53;1.80;;;;;;;27.98;28.45;63799.94;5093448;28;20200;-72
2022/05/20 11:34:51;;;;;;;4.23;1.77;;;;;;;28.14;28.13;63817.38;5093856;28;20306;-72
2022/05/20 11:37:35;;;;;;;2.00;1.80;;;;;;;28.51;28.77;63857.13;5093273;28;20200;-73
2022/05/20 11:40:26;;;;;;;4.83;1.70;;;;;;;28.60;28.37;63862.25;5091841;28;20199;-72
2022/05/20 11:43:20;;;;;;;4.83;1.67;;;;;;;28.81;27.15;63884.56;5093583;28;20207;-74
2022/05/20 11:45:57;;;;;;;8.13;1.80;;;;;;;28.68;27.28;63873.56;5093555;28;20201;-75
2022/05/20 11:49:04;;;;;;;4.07;1.43;;;;;;;29.13;26.69;63922.06;5093259;28;20205;-73
2022/05/20 11:51:59;;;;;;;4.07;1.50;;;;;;;29.98;26.44;64011.56;5031063;28;20200;-72
2022/05/20 11:54:32;;;;;;;2.30;1.60;;;;;;;30.35;26.04;64059.81;5072884;28;20200;-72
2022/05/20 11:57:04;;;;;;;4.73;1.50;;;;;;;28.38;25.70;63843.50;5072964;28;20288;-73
2022/05/20 11:59:37;;;;;;;8.80;1.53;;;;;;;28.38;26.68;63844.06;5072741;28;20208;-73
2022/05/20 12:02:10;;;;;;;8.27;1.93;;;;;;;29.16;27.64;63928.50;5072750;28;20197;-73
2022/05/20 12:04:40;;;;;;;6.70;1.70;;;;;;;29.56;26.37;63971.03;5072790;28;20233;-75
2022/05/20 12:07:14;;;;;;;9.13;1.90;;;;;;;29.38;26.82;63951.41;5072382;28;20253;-73
2022/05/20 12:09:43;;;;;;;5.67;1.33;;;;;;;29.74;25.91;63985.41;5072658;28;20268;-73
2022/05/20 12:12:28;;;;;;;2.80;1.73;;;;;;;29.77;26.47;63988.69;5072368;28;20207;-74
2022/05/20 12:15:06;;;;;;;4.90;1.70;;;;;;;29.70;25.47;63984.19;5072710;28;20203;-73
2022/05/20 12:17:35;;;;;;;5.73;1.47;;;;;;;28.45;25.67;63851.13;5072392;28;20210;-72